Estación Meteorológica Peña el Pijo (Robertgarden) [ 08/22/19 15:22:19 CEST ]

Fecha Hora Presion(HPa) Temp (°C) Humedad % Rocio (°C) Viento ( m/s) Direccion Lluvia 1Hora(mm) Lluvia 24H(mm) LLuvia Total(mm)
2019-Feb-12 01:01:46 1016.800 4.4 79 1.1         183.37
2019-Feb-12 02:01:43 1016.900 3.6 80 0.5         183.37
2019-Feb-12 03:01:40 1016.600 4.3 81 1.3         183.37
2019-Feb-12 04:01:42 1016.500 4.9 81 1.9         183.37
2019-Feb-12 05:02:09 1016.500 5.2 81 2.2         183.37
2019-Feb-12 06:02:07 1016.200 5.4 81 2.4         183.37
2019-Feb-12 07:01:48 1016.700 5.4 82 2.5         183.37
2019-Feb-12 08:01:47 1017.100 5.0 83 2.3         183.37
2019-Feb-12 09:01:51 1017.600 5.0 85 2.6         183.37
2019-Feb-12 10:01:47 1018.300 5.6 85 3.2         183.37
2019-Feb-12 11:01:35 1018.500 7.9 84 5.4         183.37
2019-Feb-12 12:01:55 1018.300 12.4 72 7.5         183.37
2019-Feb-12 13:01:47 1017.900 12.7 58 4.6         183.37
2019-Feb-12 14:01:50 1017.400 13.8 54 4.6         183.37
2019-Feb-12 15:01:42 1017.100 14.1 53 4.7         183.37
2019-Feb-12 16:01:47 1017.000 13.8 52 4.1 1.1 NNE     183.37
2019-Feb-12 17:01:35 1017.200 12.9 53 3.5         183.37
2019-Feb-12 18:01:51 1017.400 10.7 56 2.3         183.37
2019-Feb-12 19:01:49 1017.900 7.8 64 1.3         183.37
2019-Feb-12 20:01:36 1018.300 5.9 69 0.7         183.37
2019-Feb-12 21:01:32 1018.800 3.8 73 -0.6         183.37
2019-Feb-12 22:01:27 1018.900 2.4 76 -1.4         183.37
2019-Feb-12 23:01:55 1018.900 1.6 79 -1.7         183.37

Temperatura Máxima:14°    Temperatura Mínima:
Presión Máxima:1018.900 Hpa    Presión Mínima:1016.200 Hpa


Volver